createdAt,value
2023-02-24T00:01:25.067Z,8.28
2023-02-24T00:03:26.727Z,8.38
2023-02-24T00:05:29.492Z,8.32
2023-02-24T00:07:32.079Z,8.31
2023-02-24T00:09:33.814Z,8.27
2023-02-24T00:11:42.118Z,8.30
2023-02-24T00:13:47.575Z,8.38
2023-02-24T00:16:01.056Z,8.34
2023-02-24T00:18:07.219Z,8.34
2023-02-24T00:20:12.212Z,8.34
2023-02-24T00:22:17.117Z,8.14
2023-02-24T00:24:25.368Z,8.08
2023-02-24T00:26:27.284Z,8.05
2023-02-24T00:28:29.269Z,8.07
2023-02-24T00:30:33.026Z,8.05
2023-02-24T00:32:36.486Z,7.99
2023-02-24T00:34:38.529Z,8.01
2023-02-24T00:36:40.243Z,7.99
2023-02-24T00:38:47.255Z,8.04
2023-02-24T00:40:48.851Z,8.07
2023-02-24T00:42:50.466Z,8.11
2023-02-24T00:44:54.204Z,8.06
2023-02-24T00:47:00.134Z,8.03
2023-02-24T00:49:05.577Z,7.96
2023-02-24T00:51:10.704Z,8.00
2023-02-24T00:53:12.304Z,7.97
2023-02-24T00:55:16.896Z,7.90
2023-02-24T00:57:20.640Z,7.96
2023-02-24T00:59:24.077Z,7.97
2023-02-24T01:01:29.854Z,7.98
2023-02-24T01:03:32.462Z,8.09
2023-02-24T01:05:36.224Z,8.13
2023-02-24T01:07:38.008Z,8.12
2023-02-24T01:09:41.467Z,8.21
2023-02-24T01:12:03.774Z,8.26
2023-02-24T01:14:11.318Z,8.25
2023-02-24T01:16:14.700Z,8.27
2023-02-24T01:18:16.314Z,8.32
2023-02-24T01:20:19.039Z,8.21
2023-02-24T01:22:21.168Z,8.26
2023-02-24T01:24:26.253Z,8.26
2023-02-24T01:26:27.928Z,8.31
2023-02-24T01:28:30.245Z,8.37
2023-02-24T01:30:31.951Z,8.33
2023-02-24T01:32:33.677Z,8.32
2023-02-24T01:34:35.386Z,8.35
2023-02-24T01:36:37.986Z,8.24
2023-02-24T01:38:42.855Z,8.19
2023-02-24T01:40:44.440Z,8.07
2023-02-24T01:42:47.851Z,8.09
2023-02-24T01:44:52.036Z,8.05
2023-02-24T01:46:53.979Z,7.99
2023-02-24T01:48:59.337Z,7.99
2023-02-24T01:51:01.842Z,7.96
2023-02-24T01:53:06.182Z,8.03
2023-02-24T01:55:14.484Z,8.04
2023-02-24T01:57:19.959Z,8.08
2023-02-24T01:59:23.752Z,8.14
2023-02-24T02:01:25.729Z,8.16
2023-02-24T02:03:30.314Z,8.09
2023-02-24T02:05:31.856Z,7.94
2023-02-24T02:07:33.547Z,7.93
2023-02-24T02:09:35.209Z,7.99
2023-02-24T02:11:37.199Z,8.10
2023-02-24T02:13:43.211Z,8.04
2023-02-24T02:15:56.958Z,8.06
2023-02-24T02:18:13.675Z,8.09
2023-02-24T02:20:26.650Z,8.12
2023-02-24T02:23:07.541Z,8.21
2023-02-24T02:25:30.735Z,8.25
2023-02-24T02:27:41.358Z,8.23
2023-02-24T02:30:06.184Z,8.23
2023-02-24T02:32:35.862Z,8.17
2023-02-24T02:34:57.499Z,8.14
2023-02-24T02:37:34.681Z,8.10
2023-02-24T02:39:49.431Z,8.12
2023-02-24T02:41:54.996Z,8.14
2023-02-24T02:44:07.992Z,8.18
2023-02-24T02:46:17.680Z,8.18
2023-02-24T02:48:34.782Z,8.13
2023-02-24T02:50:47.323Z,8.13
2023-02-24T02:53:03.318Z,8.10
2023-02-24T02:55:30.685Z,8.13
2023-02-24T02:57:32.431Z,8.12
2023-02-24T02:59:37.999Z,8.14
2023-02-24T03:01:43.629Z,8.12
2023-02-24T03:03:49.321Z,8.11
2023-02-24T03:05:56.553Z,8.11
2023-02-24T03:07:59.374Z,8.10
2023-02-24T03:10:10.870Z,8.09
2023-02-24T03:12:16.163Z,8.06
2023-02-24T03:14:19.961Z,8.08
2023-02-24T03:16:23.678Z,8.08
2023-02-24T03:18:32.406Z,8.09
2023-02-24T03:20:38.416Z,8.11
2023-02-24T03:23:03.056Z,8.08
2023-02-24T03:25:06.134Z,8.01
2023-02-24T03:27:20.824Z,8.02
2023-02-24T03:29:45.934Z,8.03
2023-02-24T03:32:04.968Z,8.07
2023-02-24T03:34:12.655Z,8.00
2023-02-24T03:36:15.173Z,7.94
2023-02-24T03:38:16.965Z,7.99
2023-02-24T03:40:20.852Z,8.02
2023-02-24T03:42:22.329Z,8.05
2023-02-24T03:44:27.014Z,8.01
2023-02-24T03:46:29.925Z,8.00
2023-02-24T03:48:33.255Z,7.96
2023-02-24T03:50:35.609Z,7.94
2023-02-24T03:52:47.361Z,7.85
2023-02-24T03:55:18.175Z,7.87
2023-02-24T03:57:55.898Z,7.98
2023-02-24T04:00:22.865Z,8.05
2023-02-24T04:02:30.506Z,8.05
2023-02-24T04:04:41.787Z,7.81
2023-02-24T04:06:47.133Z,7.69
2023-02-24T04:08:52.439Z,7.51
2023-02-24T04:10:58.810Z,7.35
2023-02-24T04:13:05.502Z,7.17
2023-02-24T04:15:18.082Z,7.29
2023-02-24T04:17:23.373Z,7.45
2023-02-24T04:19:27.735Z,7.54
2023-02-24T04:21:31.387Z,7.56
2023-02-24T04:23:34.271Z,7.68
2023-02-24T04:25:36.202Z,7.74
2023-02-24T04:27:37.996Z,7.81
2023-02-24T04:29:47.219Z,7.89
2023-02-24T04:31:53.415Z,8.01
2023-02-24T04:33:55.272Z,8.08
2023-02-24T04:35:56.830Z,8.04
2023-02-24T04:37:58.461Z,8.04
2023-02-24T04:40:00.708Z,8.08
2023-02-24T04:42:02.303Z,8.00
2023-02-24T04:44:05.016Z,7.92
2023-02-24T04:46:08.195Z,7.98
2023-02-24T04:48:13.075Z,8.05
2023-02-24T04:50:22.908Z,8.14
2023-02-24T04:52:24.672Z,8.21
2023-02-24T04:54:26.348Z,8.27
2023-02-24T04:56:29.060Z,8.35
2023-02-24T04:58:31.134Z,8.02
2023-02-24T05:00:35.935Z,7.88
2023-02-24T05:02:38.422Z,7.56
2023-02-24T05:04:40.101Z,7.22
2023-02-24T05:06:44.162Z,7.02
2023-02-24T05:08:45.865Z,7.01
2023-02-24T05:10:47.728Z,7.13
2023-02-24T05:12:49.475Z,7.30
2023-02-24T05:14:51.642Z,7.38
2023-02-24T05:16:57.018Z,7.34
2023-02-24T05:19:17.211Z,7.43
2023-02-24T05:21:37.114Z,7.57
2023-02-24T05:23:40.972Z,7.58
2023-02-24T05:25:43.229Z,7.59
2023-02-24T05:27:44.842Z,7.65
2023-02-24T05:29:46.454Z,7.71
2023-02-24T05:31:48.103Z,7.78
2023-02-24T05:33:57.875Z,7.91
2023-02-24T05:36:05.692Z,8.04
2023-02-24T05:38:08.356Z,8.12
2023-02-24T05:40:13.415Z,8.14
2023-02-24T05:42:15.446Z,8.15
2023-02-24T05:44:23.767Z,8.18
2023-02-24T05:46:29.890Z,8.16
2023-02-24T05:48:35.449Z,8.15
2023-02-24T05:50:39.044Z,8.19
2023-02-24T05:52:40.799Z,8.23
2023-02-24T05:54:45.140Z,8.25
2023-02-24T05:56:46.750Z,8.21
2023-02-24T05:58:50.158Z,8.21
2023-02-24T06:00:52.466Z,8.26
2023-02-24T06:02:54.081Z,8.31
2023-02-24T06:04:55.836Z,8.32
2023-02-24T06:06:58.226Z,8.35
2023-02-24T06:09:01.961Z,8.29
2023-02-24T06:11:03.690Z,8.17
2023-02-24T06:13:06.915Z,8.05
2023-02-24T06:15:08.978Z,7.77
2023-02-24T06:17:10.978Z,7.64
2023-02-24T06:19:13.043Z,7.50
2023-02-24T06:21:15.439Z,7.31
2023-02-24T06:23:17.998Z,7.23
2023-02-24T06:25:20.288Z,7.23
2023-02-24T06:27:24.934Z,7.20
2023-02-24T06:29:29.784Z,7.16
2023-02-24T06:31:31.412Z,7.14
2023-02-24T06:33:36.324Z,7.24
2023-02-24T06:35:38.998Z,7.38
2023-02-24T06:37:41.211Z,7.33
2023-02-24T06:39:43.445Z,7.37
2023-02-24T06:41:45.842Z,7.28
2023-02-24T06:43:50.533Z,7.12
2023-02-24T06:45:52.419Z,7.24
2023-02-24T06:47:54.151Z,7.34
2023-02-24T06:49:55.791Z,7.38
2023-02-24T06:51:57.772Z,7.46
2023-02-24T06:53:59.835Z,7.57
2023-02-24T06:56:15.072Z,7.71
2023-02-24T06:58:18.494Z,7.80
2023-02-24T07:00:21.301Z,7.89
2023-02-24T07:02:25.396Z,8.04
2023-02-24T07:04:28.931Z,8.16
2023-02-24T07:06:41.089Z,8.21
2023-02-24T07:08:44.105Z,8.15
2023-02-24T07:10:46.035Z,8.13
2023-02-24T07:12:47.616Z,8.03
2023-02-24T07:14:50.559Z,7.83
2023-02-24T07:16:54.599Z,7.54
2023-02-24T07:18:58.138Z,7.41
2023-02-24T07:21:05.217Z,7.22
2023-02-24T07:23:06.819Z,7.15
2023-02-24T07:25:08.498Z,7.21
2023-02-24T07:27:22.018Z,7.08
2023-02-24T07:29:25.553Z,6.90
2023-02-24T07:31:27.244Z,6.97
2023-02-24T07:33:28.957Z,7.14
2023-02-24T07:35:30.911Z,7.33
2023-02-24T07:37:32.529Z,7.43
2023-02-24T07:39:36.885Z,7.36
2023-02-24T07:41:38.480Z,7.20
2023-02-24T07:43:42.288Z,7.21
2023-02-24T07:45:44.023Z,7.17
2023-02-24T07:47:45.699Z,7.23
2023-02-24T07:49:47.325Z,7.30
2023-02-24T07:51:52.851Z,7.38
2023-02-24T07:53:59.451Z,7.32
2023-02-24T07:56:03.389Z,7.13
2023-02-24T07:58:06.070Z,7.29
2023-02-24T08:00:17.883Z,7.45
2023-02-24T08:02:19.708Z,7.57
2023-02-24T08:04:27.130Z,7.60
2023-02-24T08:06:45.484Z,7.76
2023-02-24T08:09:16.803Z,7.97
2023-02-24T08:11:21.759Z,8.21
2023-02-24T08:13:23.483Z,8.38
2023-02-24T08:15:34.147Z,8.54
2023-02-24T08:17:36.011Z,8.61
2023-02-24T08:19:40.168Z,8.72
2023-02-24T08:21:47.601Z,8.81
2023-02-24T08:23:49.223Z,8.88
2023-02-24T08:25:50.907Z,9.00
2023-02-24T08:28:12.566Z,9.10
2023-02-24T08:30:23.785Z,9.17
2023-02-24T08:32:37.273Z,9.21
2023-02-24T08:34:39.409Z,9.12
2023-02-24T08:36:46.969Z,8.90
2023-02-24T08:38:52.276Z,8.27
2023-02-24T08:40:55.831Z,8.11
2023-02-24T08:43:19.495Z,7.84
2023-02-24T08:45:21.107Z,7.90
2023-02-24T08:47:31.056Z,7.94
2023-02-24T08:49:33.414Z,8.09
2023-02-24T08:51:35.993Z,8.19
2023-02-24T08:53:40.744Z,7.94
2023-02-24T08:55:42.798Z,8.03
2023-02-24T08:57:53.525Z,8.03
2023-02-24T08:59:58.228Z,8.00
2023-02-24T09:02:18.689Z,7.99
2023-02-24T09:04:20.651Z,7.85
2023-02-24T09:06:34.045Z,8.04
2023-02-24T09:08:38.572Z,8.28
2023-02-24T09:10:41.107Z,8.08
2023-02-24T09:12:42.793Z,7.74
2023-02-24T09:14:44.397Z,7.80
2023-02-24T09:17:02.378Z,7.63
2023-02-24T09:19:36.155Z,7.82
2023-02-24T09:21:50.010Z,8.15
2023-02-24T09:23:52.698Z,8.44
2023-02-24T09:25:54.589Z,8.48
2023-02-24T09:28:10.325Z,8.47
2023-02-24T09:30:32.303Z,8.53
2023-02-24T09:32:34.810Z,8.58
2023-02-24T09:34:43.943Z,8.64
2023-02-24T09:36:45.583Z,8.84
2023-02-24T09:39:02.285Z,8.97
2023-02-24T09:41:29.999Z,8.71
2023-02-24T09:43:40.264Z,8.89
2023-02-24T09:45:42.644Z,8.86
2023-02-24T09:47:56.304Z,8.96
2023-02-24T09:50:14.406Z,9.17
2023-02-24T09:52:18.341Z,9.31
2023-02-24T09:54:24.549Z,9.46
2023-02-24T09:56:37.378Z,9.55
2023-02-24T09:58:48.365Z,9.63
2023-02-24T10:00:56.156Z,9.67
2023-02-24T10:03:19.438Z,9.81
2023-02-24T10:05:48.516Z,10.02
2023-02-24T10:07:53.295Z,10.05
2023-02-24T10:10:20.661Z,10.14
2023-02-24T10:12:28.049Z,10.12
2023-02-24T10:14:51.033Z,10.16
2023-02-24T10:17:13.710Z,10.23
2023-02-24T10:19:24.807Z,10.34
2023-02-24T10:21:49.901Z,10.41
2023-02-24T10:24:14.490Z,10.40
2023-02-24T10:26:31.896Z,10.22
2023-02-24T10:28:46.041Z,10.40
2023-02-24T10:31:01.717Z,10.62
2023-02-24T10:33:05.426Z,10.93
2023-02-24T10:35:16.307Z,11.32
2023-02-24T10:37:28.153Z,11.72
2023-02-24T10:39:33.391Z,11.98
2023-02-24T10:41:57.534Z,11.78
2023-02-24T10:43:59.389Z,11.71
2023-02-24T10:46:17.213Z,11.39
2023-02-24T10:48:40.696Z,11.23
2023-02-24T10:50:55.028Z,11.48
2023-02-24T10:53:03.871Z,11.62
2023-02-24T10:55:27.967Z,11.82
2023-02-24T10:57:47.407Z,11.91
2023-02-24T11:00:13.494Z,12.08
2023-02-24T11:02:45.891Z,12.07
2023-02-24T11:05:00.152Z,12.15
2023-02-24T11:07:09.945Z,12.13
2023-02-24T11:09:20.385Z,12.09
2023-02-24T11:11:29.900Z,12.02
2023-02-24T11:13:50.042Z,11.45
2023-02-24T11:16:12.885Z,11.16
2023-02-24T11:18:28.718Z,11.12
2023-02-24T11:20:47.739Z,11.22
2023-02-24T11:22:52.586Z,11.46
2023-02-24T11:24:54.108Z,11.91
2023-02-24T11:26:55.771Z,12.32
2023-02-24T11:29:19.958Z,12.71
2023-02-24T11:31:30.443Z,13.06
2023-02-24T11:33:42.568Z,13.08
2023-02-24T11:35:44.147Z,12.77
2023-02-24T11:37:48.861Z,12.57
2023-02-24T11:40:01.349Z,12.19
2023-02-24T11:42:07.904Z,11.88
2023-02-24T11:44:10.902Z,11.83
2023-02-24T11:46:34.700Z,11.82
2023-02-24T11:48:37.996Z,11.62
2023-02-24T11:51:04.484Z,11.86
2023-02-24T11:53:31.118Z,11.90
2023-02-24T11:55:42.652Z,12.17
2023-02-24T11:57:48.711Z,12.40
2023-02-24T11:59:58.591Z,12.64
2023-02-24T12:02:25.326Z,12.73
2023-02-24T12:04:34.591Z,12.79
2023-02-24T12:07:00.335Z,12.36
2023-02-24T12:09:09.591Z,11.91
2023-02-24T12:11:30.488Z,12.04
2023-02-24T12:13:38.114Z,12.20
2023-02-24T12:15:46.788Z,12.41
2023-02-24T12:18:24.298Z,12.38
2023-02-24T12:20:51.111Z,12.55
2023-02-24T12:22:56.366Z,12.41
2023-02-24T12:24:58.093Z,12.42
2023-02-24T12:27:08.267Z,12.36
2023-02-24T12:29:27.976Z,12.08
2023-02-24T12:31:57.312Z,11.72
2023-02-24T12:34:11.987Z,11.84
2023-02-24T12:36:21.500Z,11.77
2023-02-24T12:38:26.280Z,11.77
2023-02-24T12:40:47.133Z,11.50
2023-02-24T12:43:09.414Z,11.46
2023-02-24T12:45:17.148Z,11.38
2023-02-24T12:47:27.395Z,11.32
2023-02-24T12:49:47.315Z,11.13
2023-02-24T12:52:10.758Z,10.81
2023-02-24T12:54:36.065Z,11.00
2023-02-24T12:56:45.676Z,11.05
2023-02-24T12:58:50.337Z,10.92
2023-02-24T13:01:21.672Z,10.80
2023-02-24T13:03:23.359Z,11.00
2023-02-24T13:05:41.078Z,11.36
2023-02-24T13:08:18.952Z,11.37
2023-02-24T13:10:31.200Z,11.40
2023-02-24T13:12:38.535Z,11.25
2023-02-24T13:14:41.137Z,11.41
2023-02-24T13:16:43.119Z,11.61
2023-02-24T13:18:45.965Z,11.73
2023-02-24T13:20:47.886Z,11.84
2023-02-24T13:22:50.529Z,11.88
2023-02-24T13:24:54.780Z,11.95
2023-02-24T13:27:07.673Z,12.01
2023-02-24T13:29:12.017Z,12.06
2023-02-24T13:31:13.949Z,12.13
2023-02-24T13:33:23.429Z,12.17
2023-02-24T13:35:25.130Z,11.73
2023-02-24T13:37:39.006Z,11.34
2023-02-24T13:39:41.579Z,11.32
2023-02-24T13:41:43.234Z,11.38
2023-02-24T13:43:58.031Z,11.53
2023-02-24T13:46:01.978Z,11.66
2023-02-24T13:48:22.291Z,11.76
2023-02-24T13:50:32.913Z,11.60
2023-02-24T13:52:39.455Z,11.34
2023-02-24T13:55:13.533Z,11.28
2023-02-24T13:57:18.014Z,11.34
2023-02-24T13:59:48.142Z,11.42
2023-02-24T14:02:01.823Z,11.20
2023-02-24T14:04:20.261Z,11.14
2023-02-24T14:06:26.663Z,11.13
2023-02-24T14:08:51.378Z,11.04
2023-02-24T14:10:55.696Z,11.14
2023-02-24T14:13:12.659Z,11.27
2023-02-24T14:15:23.494Z,11.19
2023-02-24T14:17:30.119Z,11.14
2023-02-24T14:19:32.061Z,11.18
2023-02-24T14:21:34.075Z,11.22
2023-02-24T14:23:37.348Z,11.29
2023-02-24T14:25:39.283Z,11.33
2023-02-24T14:27:43.961Z,11.41
2023-02-24T14:29:45.579Z,11.48
2023-02-24T14:31:49.301Z,11.57
2023-02-24T14:33:54.786Z,11.62
2023-02-24T14:35:57.125Z,11.59
2023-02-24T14:38:00.284Z,11.57
2023-02-24T14:40:06.533Z,11.55
2023-02-24T14:42:08.662Z,11.57
2023-02-24T14:44:19.460Z,11.59
2023-02-24T14:46:21.558Z,11.27
2023-02-24T14:48:28.241Z,11.23
2023-02-24T14:50:33.391Z,11.26
2023-02-24T14:52:35.007Z,11.33
2023-02-24T14:54:39.540Z,11.41
2023-02-24T14:56:41.638Z,11.50
2023-02-24T14:58:51.323Z,11.56
2023-02-24T15:01:07.144Z,11.57
2023-02-24T15:03:14.814Z,11.62
2023-02-24T15:05:19.517Z,11.65
2023-02-24T15:07:27.205Z,11.70
2023-02-24T15:09:34.857Z,11.72
2023-02-24T15:11:37.349Z,11.76
2023-02-24T15:13:49.092Z,11.78
2023-02-24T15:15:50.799Z,11.83
2023-02-24T15:18:03.147Z,11.87
2023-02-24T15:20:24.503Z,11.85
2023-02-24T15:22:33.619Z,11.82
2023-02-24T15:24:35.514Z,11.82
2023-02-24T15:26:40.179Z,11.80
2023-02-24T15:28:41.789Z,11.81
2023-02-24T15:30:59.140Z,11.79
2023-02-24T15:33:04.143Z,11.79
2023-02-24T15:35:06.293Z,11.78
2023-02-24T15:37:21.688Z,11.79
2023-02-24T15:39:24.997Z,11.80
2023-02-24T15:41:26.671Z,11.78
2023-02-24T15:43:35.526Z,11.76
2023-02-24T15:45:39.595Z,11.75
2023-02-24T15:47:45.659Z,11.73
2023-02-24T15:49:47.332Z,11.72
2023-02-24T15:51:51.033Z,11.69
2023-02-24T15:53:53.009Z,11.67
2023-02-24T15:55:54.669Z,11.68
2023-02-24T15:57:59.258Z,11.67
2023-02-24T16:00:01.090Z,11.65
2023-02-24T16:02:02.703Z,11.64
2023-02-24T16:04:05.119Z,11.65
2023-02-24T16:06:07.724Z,11.65
2023-02-24T16:08:17.941Z,11.72
2023-02-24T16:10:22.570Z,11.71
2023-02-24T16:12:31.966Z,11.72
2023-02-24T16:14:33.919Z,11.71
2023-02-24T16:16:35.569Z,11.68
2023-02-24T16:18:37.309Z,11.67
2023-02-24T16:20:39.766Z,11.68
2023-02-24T16:22:41.549Z,11.60
2023-02-24T16:24:43.912Z,11.47
2023-02-24T16:26:45.608Z,11.45
2023-02-24T16:28:52.814Z,11.45
2023-02-24T16:30:54.538Z,11.39
2023-02-24T16:33:00.332Z,11.37
2023-02-24T16:35:02.246Z,11.27
2023-02-24T16:37:04.053Z,11.24
2023-02-24T16:39:05.782Z,11.27
2023-02-24T16:41:07.507Z,11.29
2023-02-24T16:43:09.996Z,11.33
2023-02-24T16:45:11.774Z,11.36
2023-02-24T16:47:17.701Z,11.38
2023-02-24T16:49:21.035Z,11.38
2023-02-24T16:51:23.008Z,11.33
2023-02-24T16:53:24.870Z,11.33
2023-02-24T16:55:26.985Z,11.13
2023-02-24T16:57:28.697Z,11.01
2023-02-24T16:59:30.323Z,10.88
2023-02-24T17:01:32.123Z,10.88
2023-02-24T17:03:44.759Z,10.91
2023-02-24T17:05:46.487Z,10.97
2023-02-24T17:07:49.349Z,11.04
2023-02-24T17:09:51.048Z,11.00
2023-02-24T17:11:52.736Z,11.00
2023-02-24T17:13:54.451Z,11.09
2023-02-24T17:15:57.445Z,11.14
2023-02-24T17:17:59.181Z,11.19
2023-02-24T17:20:00.791Z,11.22
2023-02-24T17:22:02.399Z,11.23
2023-02-24T17:24:04.208Z,11.20
2023-02-24T17:26:13.462Z,11.15
2023-02-24T17:28:15.117Z,11.12
2023-02-24T17:30:19.973Z,11.09
2023-02-24T17:32:21.861Z,11.10
2023-02-24T17:34:24.306Z,11.13
2023-02-24T17:36:26.054Z,11.11
2023-02-24T17:38:28.733Z,11.07
2023-02-24T17:40:30.417Z,11.07
2023-02-24T17:42:33.033Z,11.12
2023-02-24T17:44:34.605Z,11.10
2023-02-24T17:46:36.302Z,11.11
2023-02-24T17:48:38.010Z,11.11
2023-02-24T17:50:44.368Z,10.86
2023-02-24T17:52:46.084Z,10.43
2023-02-24T17:54:47.701Z,10.42
2023-02-24T17:56:49.354Z,10.31
2023-02-24T17:58:51.079Z,10.33
2023-02-24T18:00:52.616Z,10.35
2023-02-24T18:02:54.614Z,10.41
2023-02-24T18:04:56.930Z,10.34
2023-02-24T18:06:58.476Z,10.28
2023-02-24T18:09:00.099Z,10.31
2023-02-24T18:11:02.476Z,10.11
2023-02-24T18:13:04.107Z,10.11
2023-02-24T18:15:09.370Z,10.15
2023-02-24T18:17:11.500Z,10.12
2023-02-24T18:19:13.190Z,10.06
2023-02-24T18:21:14.807Z,10.09
2023-02-24T18:23:16.380Z,10.19
2023-02-24T18:25:18.128Z,10.25
2023-02-24T18:27:20.404Z,10.15
2023-02-24T18:29:22.290Z,10.14
2023-02-24T18:31:26.117Z,10.20
2023-02-24T18:33:27.796Z,10.23
2023-02-24T18:35:30.137Z,10.11
2023-02-24T18:37:31.735Z,10.12
2023-02-24T18:39:33.343Z,10.20
2023-02-24T18:41:34.976Z,10.29
2023-02-24T18:43:37.096Z,10.35
2023-02-24T18:45:38.701Z,10.40
2023-02-24T18:47:40.288Z,10.44
2023-02-24T18:49:41.892Z,10.21
2023-02-24T18:51:44.800Z,10.06
2023-02-24T18:53:46.511Z,10.13
2023-02-24T18:55:48.476Z,10.17
2023-02-24T18:57:50.096Z,10.18
2023-02-24T18:59:51.858Z,10.14
2023-02-24T19:01:54.101Z,9.79
2023-02-24T19:03:56.617Z,9.82
2023-02-24T19:05:58.276Z,9.77
2023-02-24T19:07:59.863Z,9.64
2023-02-24T19:10:01.448Z,9.62
2023-02-24T19:12:03.150Z,9.66
2023-02-24T19:14:05.116Z,9.63
2023-02-24T19:16:07.464Z,9.63
2023-02-24T19:18:09.598Z,9.55
2023-02-24T19:20:14.848Z,9.57
2023-02-24T19:22:16.447Z,9.60
2023-02-24T19:24:18.174Z,9.71
2023-02-24T19:26:24.915Z,9.77
2023-02-24T19:28:26.743Z,9.79
2023-02-24T19:30:28.403Z,9.82
2023-02-24T19:32:30.094Z,9.73
2023-02-24T19:34:31.813Z,9.68
2023-02-24T19:36:35.410Z,9.57
2023-02-24T19:38:37.768Z,9.45
2023-02-24T19:40:39.376Z,9.16
2023-02-24T19:42:41.077Z,9.21
2023-02-24T19:44:42.716Z,9.35
2023-02-24T19:46:44.360Z,9.45
2023-02-24T19:48:46.122Z,9.45
2023-02-24T19:50:47.684Z,9.39
2023-02-24T19:52:49.423Z,9.39
2023-02-24T19:54:51.388Z,9.19
2023-02-24T19:56:55.746Z,9.16
2023-02-24T19:58:58.468Z,9.21
2023-02-24T20:01:11.154Z,9.20
2023-02-24T20:03:12.762Z,9.22
2023-02-24T20:05:15.542Z,9.17
2023-02-24T20:07:17.207Z,9.18
2023-02-24T20:09:23.350Z,9.25
2023-02-24T20:11:25.068Z,9.32
2023-02-24T20:13:26.704Z,9.40
2023-02-24T20:15:28.270Z,9.45
2023-02-24T20:17:30.251Z,9.49
2023-02-24T20:19:33.350Z,9.53
2023-02-24T20:21:35.437Z,9.53
2023-02-24T20:23:40.757Z,9.55
2023-02-24T20:25:50.859Z,9.57
2023-02-24T20:27:52.575Z,9.54
2023-02-24T20:29:56.416Z,9.46
2023-02-24T20:31:57.948Z,9.42
2023-02-24T20:33:59.611Z,9.43
2023-02-24T20:36:01.517Z,9.48
2023-02-24T20:38:03.195Z,9.48
2023-02-24T20:40:05.619Z,9.42
2023-02-24T20:42:07.255Z,9.40
2023-02-24T20:44:09.313Z,9.42
2023-02-24T20:46:24.430Z,9.48
2023-02-24T20:48:26.827Z,9.45
2023-02-24T20:50:29.245Z,9.29
2023-02-24T20:52:30.885Z,9.27
2023-02-24T20:54:32.477Z,9.25
2023-02-24T20:56:37.867Z,9.27
2023-02-24T20:58:39.619Z,9.28
2023-02-24T21:00:41.534Z,9.23
2023-02-24T21:02:43.637Z,9.21
2023-02-24T21:04:45.220Z,9.24
2023-02-24T21:06:48.159Z,9.25
2023-02-24T21:08:51.060Z,9.28
2023-02-24T21:10:52.671Z,9.31
2023-02-24T21:12:54.274Z,9.29
2023-02-24T21:14:55.841Z,9.25
2023-02-24T21:16:57.379Z,9.24
2023-02-24T21:18:59.105Z,9.23
2023-02-24T21:21:00.670Z,9.25
2023-02-24T21:23:02.954Z,9.27
2023-02-24T21:25:05.898Z,9.09
2023-02-24T21:27:07.518Z,8.90
2023-02-24T21:29:09.117Z,8.82
2023-02-24T21:31:16.070Z,8.85
2023-02-24T21:33:18.313Z,8.88
2023-02-24T21:35:19.949Z,8.93
2023-02-24T21:37:21.518Z,8.93
2023-02-24T21:39:23.134Z,8.73
2023-02-24T21:41:24.781Z,8.75
2023-02-24T21:43:26.711Z,8.79
2023-02-24T21:45:28.778Z,8.89
2023-02-24T21:47:31.324Z,8.93
2023-02-24T21:49:33.280Z,8.78
2023-02-24T21:51:36.044Z,8.79
2023-02-24T21:53:39.438Z,8.81
2023-02-24T21:55:41.519Z,8.82
2023-02-24T21:57:47.955Z,8.86
2023-02-24T21:59:55.530Z,8.88
2023-02-24T22:01:57.276Z,8.90
2023-02-24T22:04:01.344Z,8.93
2023-02-24T22:06:03.129Z,8.92
2023-02-24T22:08:07.735Z,8.93
2023-02-24T22:10:13.483Z,8.95
2023-02-24T22:12:15.104Z,8.94
2023-02-24T22:14:20.468Z,8.90
2023-02-24T22:16:24.537Z,8.91
2023-02-24T22:18:26.304Z,8.88
2023-02-24T22:20:27.916Z,8.90
2023-02-24T22:22:29.631Z,8.93
2023-02-24T22:24:31.757Z,8.92
2023-02-24T22:26:36.291Z,8.91
2023-02-24T22:28:40.217Z,8.90
2023-02-24T22:30:41.709Z,8.91
2023-02-24T22:32:43.455Z,8.89
2023-02-24T22:34:45.294Z,8.78
2023-02-24T22:36:46.871Z,8.46
2023-02-24T22:38:51.864Z,8.46
2023-02-24T22:40:59.052Z,8.50
2023-02-24T22:43:00.619Z,8.49
2023-02-24T22:45:02.324Z,8.51
2023-02-24T22:47:06.839Z,8.55
2023-02-24T22:49:08.500Z,8.52
2023-02-24T22:51:14.179Z,8.52
2023-02-24T22:53:16.492Z,8.54
2023-02-24T22:55:19.782Z,8.46
2023-02-24T22:57:21.458Z,8.45
2023-02-24T22:59:23.293Z,8.47
2023-02-24T23:01:28.039Z,8.46
2023-02-24T23:03:33.466Z,8.44
2023-02-24T23:05:35.053Z,8.46
2023-02-24T23:07:37.466Z,8.49
2023-02-24T23:09:39.129Z,8.49
2023-02-24T23:11:41.627Z,8.55
2023-02-24T23:13:44.766Z,8.54
2023-02-24T23:15:48.259Z,8.40
2023-02-24T23:17:49.811Z,8.38
2023-02-24T23:19:51.444Z,8.38
2023-02-24T23:22:16.220Z,8.30
2023-02-24T23:24:22.485Z,8.09
2023-02-24T23:26:38.586Z,8.15
2023-02-24T23:28:40.384Z,8.16
2023-02-24T23:30:42.018Z,8.23
2023-02-24T23:32:44.108Z,8.29
2023-02-24T23:34:45.932Z,8.33
2023-02-24T23:36:48.286Z,8.36
2023-02-24T23:38:50.077Z,8.37
2023-02-24T23:40:54.654Z,8.30
2023-02-24T23:42:56.254Z,8.27
2023-02-24T23:44:57.843Z,8.34
2023-02-24T23:47:01.280Z,8.34
2023-02-24T23:49:03.453Z,8.38
2023-02-24T23:51:07.569Z,8.38
2023-02-24T23:53:10.095Z,8.24
2023-02-24T23:55:11.852Z,8.19
2023-02-24T23:57:17.673Z,8.25
2023-02-24T23:59:19.302Z,8.26
